Time;durP1;ratioP1;P1;durP2;ratioP2;P2;SDS_P1;SDS_P2;PMS_P1;PMS_P2;Temp;Humidity;BMP_temperature;BMP_pressure;BME280_temperature;BME280_humidity;BME280_pressure;Samples;Min_cycle;Max_cycle;Signal;HPM_P1;HPM_P2
2023/07/22 00:01:41;;;;;;;4.07;2.05;;;;;;;;;;6245673;23;20190;-91
2023/07/22 00:04:47;;;;;;;8.57;1.98;;;;;;;;;;6244976;22;20163;-93
2023/07/22 00:07:53;;;;;;;7.20;2.00;;;;;;;;;;6244367;22;20166;-93
2023/07/22 00:10:58;;;;;;;5.55;2.10;;;;;;;;;;6245409;22;20219;-91
2023/07/22 00:14:06;;;;;;;4.20;2.13;;;;;;;;;;6243888;22;20166;-92
2023/07/22 00:17:11;;;;;;;6.65;2.33;;;;;;;;;;6244558;23;20170;-88
2023/07/22 00:20:16;;;;;;;5.00;2.10;;;;;;;;;;6244854;22;20174;-92
2023/07/22 00:23:21;;;;;;;7.05;2.40;;;;;;;;;;6243938;22;20279;-93
2023/07/22 00:26:26;;;;;;;7.70;2.10;;;;;;;;;;6245372;22;20241;-91
2023/07/22 00:29:33;;;;;;;4.50;1.90;;;;;;;;;;6246425;22;20193;-91
2023/07/22 00:32:40;;;;;;;4.93;1.90;;;;;;;;;;6245763;22;20454;-92
2023/07/22 00:35:50;;;;;;;5.20;2.05;;;;;;;;;;6245690;22;20166;-92
2023/07/22 06:07:29;;;;;;;8.90;3.47;;;;;;;;;;6249761;22;20211;-91
2023/07/22 06:10:34;;;;;;;10.57;3.10;;;;;;;;;;6245732;22;20162;-90
2023/07/22 06:13:39;;;;;;;6.00;3.50;;;;;;;;;;6244216;23;20173;-90
2023/07/22 06:16:44;;;;;;;6.65;3.33;;;;;;;;;;6242648;22;20231;-89
2023/07/22 06:19:50;;;;;;;5.00;2.67;;;;;;;;;;6242126;23;20170;-90
2023/07/22 06:22:56;;;;;;;6.47;2.50;;;;;;;;;;6243673;22;20183;-91
2023/07/22 06:26:01;;;;;;;7.25;3.13;;;;;;;;;;6243124;23;20170;-90
2023/07/22 06:29:07;;;;;;;5.43;3.00;;;;;;;;;;6244877;23;20245;-91
2023/07/22 06:32:17;;;;;;;4.57;2.80;;;;;;;;;;6243640;22;20170;-91
2023/07/22 06:35:23;;;;;;;5.47;2.83;;;;;;;;;;6245592;23;20215;-89
2023/07/22 06:38:32;;;;;;;5.88;2.70;;;;;;;;;;6244899;23;20158;-90
2023/07/22 06:41:38;;;;;;;4.85;2.63;;;;;;;;;;6244479;23;20166;-91
2023/07/22 06:44:45;;;;;;;4.75;2.88;;;;;;;;;;6244500;23;20245;-92
2023/07/22 06:47:52;;;;;;;4.78;2.90;;;;;;;;;;6243400;23;20182;-92
2023/07/22 06:50:57;;;;;;;5.20;2.78;;;;;;;;;;6245028;22;20218;-91
2023/07/22 06:54:03;;;;;;;4.78;2.72;;;;;;;;;;6244310;23;20182;-91
2023/07/22 06:57:11;;;;;;;6.90;2.65;;;;;;;;;;6246802;22;20211;-92
2023/07/22 07:00:17;;;;;;;7.95;3.38;;;;;;;;;;6245069;23;20214;-89
2023/07/22 07:03:23;;;;;;;5.72;2.70;;;;;;;;;;6243661;22;20198;-91
2023/07/22 07:06:30;;;;;;;5.78;3.03;;;;;;;;;;6245040;22;20239;-90
2023/07/22 07:09:36;;;;;;;9.15;3.08;;;;;;;;;;6246473;22;20171;-90
2023/07/22 07:12:50;;;;;;;6.75;2.90;;;;;;;;;;6246155;23;20170;-90
2023/07/22 07:15:57;;;;;;;8.93;2.85;;;;;;;;;;6252344;22;20191;-90
2023/07/22 07:19:02;;;;;;;4.03;2.65;;;;;;;;;;6252098;22;20171;-90
2023/07/22 07:22:08;;;;;;;7.65;2.70;;;;;;;;;;6252123;22;20211;-89
2023/07/22 07:25:15;;;;;;;5.07;2.42;;;;;;;;;;6252832;22;20255;-91
2023/07/22 22:26:03;;;;;;;5.32;2.65;;;;;;;;;;6216258;22;20207;-89
2023/07/22 22:29:08;;;;;;;5.45;2.90;;;;;;;;;;6244560;23;20170;-90
2023/07/22 22:32:30;;;;;;;6.28;3.15;;;;;;;;;;6245072;23;20536;-88
2023/07/22 22:35:36;;;;;;;7.38;3.08;;;;;;;;;;6243943;22;20200;-90
2023/07/22 22:38:55;;;;;;;6.88;3.00;;;;;;;;;;6244980;22;20178;-91
2023/07/22 22:42:02;;;;;;;6.13;2.65;;;;;;;;;;6245655;22;20170;-90
2023/07/22 22:45:08;;;;;;;10.60;3.10;;;;;;;;;;6245528;23;20170;-92
2023/07/22 22:48:54;;;;;;;10.23;3.10;;;;;;;;;;6244278;23;20163;-93
2023/07/22 22:51:59;;;;;;;5.32;2.90;;;;;;;;;;6243772;22;20159;-90
2023/07/22 22:55:05;;;;;;;7.63;3.50;;;;;;;;;;6245089;23;20170;-93
2023/07/22 22:58:14;;;;;;;7.88;3.20;;;;;;;;;;6246188;23;20204;-93
2023/07/22 23:01:20;;;;;;;9.15;3.60;;;;;;;;;;6243612;22;20190;-89
2023/07/22 23:04:25;;;;;;;5.57;3.03;;;;;;;;;;6244083;22;20181;-93
2023/07/22 23:07:30;;;;;;;9.52;3.38;;;;;;;;;;6242637;22;20167;-90
2023/07/22 23:10:35;;;;;;;11.18;3.17;;;;;;;;;;6243418;22;20194;-91
2023/07/22 23:13:42;;;;;;;5.53;3.17;;;;;;;;;;6245104;23;20170;-90
2023/07/22 23:16:48;;;;;;;7.57;3.50;;;;;;;;;;6242859;22;20162;-89
